Time;durP1;ratioP1;P1;durP2;ratioP2;P2;SDS_P1;SDS_P2;PMS_P1;PMS_P2;Temp;Humidity;BMP_temperature;BMP_pressure;BME280_temperature;BME280_humidity;BME280_pressure;Samples;Min_cycle;Max_cycle;Signal;HPM_P1;HPM_P2
2024/02/07 00:00:39;;;;;;;6.18;2.53;;;;;;;;;;5023685;28;20044;-56
2024/02/07 00:03:05;;;;;;;8.55;2.60;;;;;;;;;;5023749;28;20049;-56
2024/02/07 00:05:32;;;;;;;7.53;2.28;;;;;;;;;;5023950;28;20022;-52
2024/02/07 00:07:58;;;;;;;5.63;2.60;;;;;;;;;;5022486;28;20105;-55
2024/02/07 00:10:25;;;;;;;6.78;2.92;;;;;;;;;;5023731;28;20314;-54
2024/02/07 00:12:51;;;;;;;8.50;2.80;;;;;;;;;;5023997;28;20302;-55
2024/02/07 00:15:18;;;;;;;7.38;2.65;;;;;;;;;;5024052;28;20041;-55
2024/02/07 00:17:46;;;;;;;10.40;3.33;;;;;;;;;;5023800;28;20045;-52
2024/02/07 00:20:13;;;;;;;8.75;2.63;;;;;;;;;;5023741;28;20253;-54
2024/02/07 00:22:40;;;;;;;7.20;2.33;;;;;;;;;;5023631;28;20029;-56
2024/02/07 00:25:07;;;;;;;4.93;2.40;;;;;;;;;;5023712;28;20022;-55
2024/02/07 00:27:34;;;;;;;5.45;2.42;;;;;;;;;;5023701;28;20042;-57
2024/02/07 00:30:01;;;;;;;10.50;2.28;;;;;;;;;;5023908;28;20018;-53
2024/02/07 00:32:28;;;;;;;7.30;2.30;;;;;;;;;;5023931;28;20014;-58
2024/02/07 00:34:54;;;;;;;9.25;2.40;;;;;;;;;;5026821;28;20040;-56
2024/02/07 00:37:21;;;;;;;7.28;2.30;;;;;;;;;;5027740;28;20092;-54
2024/02/07 00:39:47;;;;;;;6.22;2.00;;;;;;;;;;5027975;28;20045;-54
2024/02/07 00:42:14;;;;;;;5.97;2.15;;;;;;;;;;5027477;28;20088;-56
2024/02/07 00:44:41;;;;;;;10.77;2.40;;;;;;;;;;5027729;28;20017;-53
2024/02/07 00:47:08;;;;;;;5.78;1.85;;;;;;;;;;5027940;28;20033;-53
2024/02/07 00:49:35;;;;;;;3.90;2.10;;;;;;;;;;5027963;28;20068;-55
2024/02/07 00:52:01;;;;;;;5.35;1.85;;;;;;;;;;5027419;28;20424;-51
2024/02/07 00:54:28;;;;;;;3.35;1.80;;;;;;;;;;5028569;28;20045;-56
2024/02/07 00:56:55;;;;;;;5.43;1.88;;;;;;;;;;5027642;28;20025;-56
2024/02/07 00:59:22;;;;;;;4.15;1.75;;;;;;;;;;5027364;28;20068;-56
2024/02/07 01:01:49;;;;;;;8.88;1.88;;;;;;;;;;5027236;28;20088;-56
2024/02/07 01:04:18;;;;;;;5.97;2.05;;;;;;;;;;5027167;28;20092;-56
2024/02/07 01:06:44;;;;;;;3.70;1.90;;;;;;;;;;5027076;28;20017;-54
2024/02/07 01:09:11;;;;;;;5.90;1.90;;;;;;;;;;5027172;28;20402;-54
2024/02/07 01:11:37;;;;;;;5.03;1.83;;;;;;;;;;5026777;28;20080;-55
2024/02/07 01:14:04;;;;;;;5.55;1.92;;;;;;;;;;5027222;28;20030;-54
2024/02/07 01:16:30;;;;;;;8.32;2.20;;;;;;;;;;5027031;28;20202;-54
2024/02/07 01:18:57;;;;;;;8.05;2.53;;;;;;;;;;5025857;28;20456;-60
2024/02/07 01:21:24;;;;;;;4.10;2.10;;;;;;;;;;5026664;28;20210;-61
2024/02/07 01:23:50;;;;;;;5.32;2.00;;;;;;;;;;5024959;28;20029;-65
2024/02/07 01:26:17;;;;;;;6.40;1.95;;;;;;;;;;5024983;28;20047;-66
2024/02/07 01:28:43;;;;;;;6.60;2.45;;;;;;;;;;5019611;28;20025;-66
2024/02/07 01:31:10;;;;;;;7.18;3.80;;;;;;;;;;5025814;28;20073;-60
2024/02/07 01:33:37;;;;;;;9.05;4.78;;;;;;;;;;5026204;28;20217;-61
2024/02/07 01:36:03;;;;;;;9.98;7.78;;;;;;;;;;5025953;28;20302;-61
2024/02/07 01:38:30;;;;;;;15.70;9.20;;;;;;;;;;5026051;28;20183;-58
2024/02/07 01:40:59;;;;;;;15.32;8.50;;;;;;;;;;5025753;28;20044;-58
2024/02/07 01:43:33;;;;;;;12.27;7.80;;;;;;;;;;5023053;28;20034;-60
2024/02/07 01:46:03;;;;;;;9.68;5.40;;;;;;;;;;5025480;28;20017;-61
2024/02/07 01:48:30;;;;;;;8.35;4.40;;;;;;;;;;5023518;28;20037;-64
2024/02/07 01:51:00;;;;;;;11.73;3.60;;;;;;;;;;5016016;28;20088;-61
2024/02/07 01:53:27;;;;;;;5.90;2.90;;;;;;;;;;5023188;28;20037;-61
2024/02/07 01:55:55;;;;;;;8.20;2.40;;;;;;;;;;5025577;28;20210;-63
2024/02/07 01:58:22;;;;;;;4.90;2.13;;;;;;;;;;5025392;28;20084;-60
2024/02/07 02:00:49;;;;;;;4.18;2.22;;;;;;;;;;5025420;28;20209;-63
2024/02/07 02:03:15;;;;;;;4.40;1.92;;;;;;;;;;5024444;28;20054;-60
2024/02/07 02:05:42;;;;;;;6.97;3.33;;;;;;;;;;5024943;28;20018;-57
2024/02/07 02:08:09;;;;;;;12.82;7.05;;;;;;;;;;5025152;28;20088;-62
2024/02/07 02:10:36;;;;;;;15.45;8.10;;;;;;;;;;5025074;28;20222;-60
2024/02/07 02:13:03;;;;;;;18.45;6.93;;;;;;;;;;5025121;28;20080;-61
2024/02/07 02:15:30;;;;;;;10.52;6.50;;;;;;;;;;5025038;28;20310;-61
2024/02/07 02:17:56;;;;;;;12.80;6.13;;;;;;;;;;5025182;28;20197;-61
2024/02/07 02:20:24;;;;;;;8.20;4.05;;;;;;;;;;5025024;28;20085;-60
2024/02/07 02:22:59;;;;;;;11.38;3.20;;;;;;;;;;5024137;28;20030;-64
2024/02/07 02:25:44;;;;;;;7.97;3.70;;;;;;;;;;5025221;28;20017;-57
2024/02/07 02:28:31;;;;;;;6.97;3.22;;;;;;;;;;5021483;28;20221;-56
2024/02/07 02:31:02;;;;;;;8.43;3.28;;;;;;;;;;5019791;28;20025;-55
2024/02/07 02:33:31;;;;;;;11.23;3.22;;;;;;;;;;5024509;28;20041;-57
2024/02/07 02:35:58;;;;;;;7.90;3.03;;;;;;;;;;5024624;28;20022;-57
2024/02/07 02:38:25;;;;;;;5.97;2.50;;;;;;;;;;5024359;28;20017;-56
2024/02/07 02:40:52;;;;;;;5.90;2.22;;;;;;;;;;5024310;28;20018;-53
2024/02/07 02:43:22;;;;;;;9.15;2.50;;;;;;;;;;5024084;28;20036;-56
2024/02/07 02:45:52;;;;;;;7.20;2.80;;;;;;;;;;5021902;28;20313;-59
2024/02/07 02:48:18;;;;;;;8.02;2.67;;;;;;;;;;5024408;28;20044;-60
2024/02/07 02:50:48;;;;;;;5.75;2.65;;;;;;;;;;5024552;28;20064;-64
2024/02/07 02:53:17;;;;;;;;;;;;;;;;;;5024669;28;20345;-60
2024/02/07 02:55:43;;;;;;;6.93;2.80;;;;;;;;;;5023807;28;19909;-59
2024/02/07 02:58:11;;;;;;;6.68;2.60;;;;;;;;;;5023342;28;20026;-61
2024/02/07 03:00:38;;;;;;;7.65;2.90;;;;;;;;;;5023988;28;20099;-59
2024/02/07 03:03:05;;;;;;;7.53;2.15;;;;;;;;;;5023934;28;20096;-59
2024/02/07 03:06:17;;;;;;;11.50;2.40;;;;;;;;;;5024061;28;20021;-54
2024/02/07 03:08:29;;;;;;;9.40;1.80;;;;;;;;;;5021144;28;20034;-60
2024/02/07 03:10:58;;;;;;;4.47;2.03;;;;;;;;;;5023933;28;20053;-59
2024/02/07 03:13:25;;;;;;;10.18;1.67;;;;;;;;;;5023782;28;20360;-56
2024/02/07 03:15:52;;;;;;;3.78;1.50;;;;;;;;;;5023847;28;20022;-61
2024/02/07 03:18:20;;;;;;;3.97;1.30;;;;;;;;;;5023644;28;20221;-63
2024/02/07 03:20:49;;;;;;;5.13;1.60;;;;;;;;;;5023945;28;20318;-55
2024/02/07 03:23:16;;;;;;;6.03;1.50;;;;;;;;;;5023978;28;20036;-55
2024/02/07 03:25:42;;;;;;;6.28;1.35;;;;;;;;;;5023558;28;20032;-58
2024/02/07 03:28:14;;;;;;;4.63;1.20;;;;;;;;;;5020844;28;20029;-59
2024/02/07 03:30:41;;;;;;;5.65;1.48;;;;;;;;;;5023658;28;20033;-55
2024/02/07 03:33:08;;;;;;;5.03;1.20;;;;;;;;;;5020733;28;20022;-54
2024/02/07 03:35:34;;;;;;;7.95;1.30;;;;;;;;;;5023618;28;20010;-57
2024/02/07 03:38:01;;;;;;;4.95;1.35;;;;;;;;;;5023689;28;20068;-61
2024/02/07 03:40:27;;;;;;;5.80;1.30;;;;;;;;;;5023450;28;20056;-64
2024/02/07 03:42:54;;;;;;;4.75;1.33;;;;;;;;;;5023403;28;20314;-65
2024/02/07 03:45:21;;;;;;;8.93;1.80;;;;;;;;;;5023432;28;20044;-60
2024/02/07 03:47:48;;;;;;;5.50;1.27;;;;;;;;;;5020560;28;20336;-59
2024/02/07 03:50:15;;;;;;;6.50;1.33;;;;;;;;;;5023505;28;20048;-58
2024/02/07 03:52:48;;;;;;;7.90;1.35;;;;;;;;;;5023421;28;20026;-60
2024/02/07 03:55:15;;;;;;;6.30;1.30;;;;;;;;;;5021338;28;20028;-56
2024/02/07 03:57:44;;;;;;;5.97;1.20;;;;;;;;;;5022784;28;20022;-58
2024/02/07 04:00:14;;;;;;;4.22;0.98;;;;;;;;;;5021093;28;20044;-58
2024/02/07 04:02:42;;;;;;;6.05;1.00;;;;;;;;;;5022988;28;20033;-57
2024/02/07 04:05:09;;;;;;;8.02;1.45;;;;;;;;;;5020761;28;20257;-63
2024/02/07 04:07:36;;;;;;;7.57;1.17;;;;;;;;;;5023843;28;20030;-60
2024/02/07 04:10:04;;;;;;;8.65;1.50;;;;;;;;;;5027217;28;20076;-60
2024/02/07 05:15:29;;;;;;;4.95;1.17;;;;;;;;;;5026835;28;20040;-63
2024/02/07 05:17:55;;;;;;;8.23;1.60;;;;;;;;;;5009275;28;20052;-64
2024/02/07 05:20:22;;;;;;;7.07;1.33;;;;;;;;;;5025680;28;20021;-66
2024/02/07 05:22:49;;;;;;;9.23;1.30;;;;;;;;;;5026703;28;20054;-66
2024/02/07 05:25:16;;;;;;;4.47;1.23;;;;;;;;;;5026642;28;20033;-66
2024/02/07 05:27:43;;;;;;;4.72;1.05;;;;;;;;;;5026734;28;20030;-67
2024/02/07 05:30:14;;;;;;;5.88;1.30;;;;;;;;;;5026494;28;20022;-63
2024/02/07 05:32:41;;;;;;;5.60;1.15;;;;;;;;;;5026463;28;20029;-65
2024/02/07 05:35:08;;;;;;;5.95;1.10;;;;;;;;;;5026210;28;20029;-63
2024/02/07 05:37:35;;;;;;;3.78;0.90;;;;;;;;;;5026535;28;20041;-64
2024/02/07 05:40:02;;;;;;;7.80;1.05;;;;;;;;;;5026278;28;20087;-64
2024/02/07 05:42:29;;;;;;;6.45;1.25;;;;;;;;;;5025910;28;20030;-65
2024/02/07 05:44:55;;;;;;;6.75;0.80;;;;;;;;;;5026265;28;20029;-64
2024/02/07 05:47:22;;;;;;;6.95;1.08;;;;;;;;;;5026241;28;20018;-64
2024/02/07 05:49:48;;;;;;;6.97;1.42;;;;;;;;;;5026232;28;20034;-62
2024/02/07 05:52:15;;;;;;;7.35;1.00;;;;;;;;;;5026032;28;20041;-64
2024/02/07 05:54:44;;;;;;;5.78;1.05;;;;;;;;;;5026062;28;20018;-61
2024/02/07 05:57:10;;;;;;;3.50;1.20;;;;;;;;;;5026013;28;20045;-64
2024/02/07 05:59:37;;;;;;;3.58;0.95;;;;;;;;;;5026370;28;20036;-65
2024/02/07 06:02:04;;;;;;;3.92;1.30;;;;;;;;;;5026093;28;20033;-63
2024/02/07 06:04:31;;;;;;;5.30;1.10;;;;;;;;;;5025688;28;20057;-64
2024/02/07 06:06:58;;;;;;;5.95;1.40;;;;;;;;;;5025747;28;20021;-65
2024/02/07 06:09:24;;;;;;;6.40;1.45;;;;;;;;;;5026215;28;20325;-64
2024/02/07 06:11:51;;;;;;;6.13;1.40;;;;;;;;;;5025701;28;20033;-62
2024/02/07 06:14:18;;;;;;;4.10;1.20;;;;;;;;;;5025948;28;20029;-63
2024/02/07 06:16:44;;;;;;;4.72;1.35;;;;;;;;;;5025632;28;20029;-64
2024/02/07 06:19:11;;;;;;;6.07;1.30;;;;;;;;;;5026115;28;20034;-65
2024/02/07 06:21:38;;;;;;;6.07;1.10;;;;;;;;;;5025405;28;20017;-64
2024/02/07 06:24:05;;;;;;;4.95;1.10;;;;;;;;;;5026036;28;20053;-64
2024/02/07 06:26:31;;;;;;;6.20;0.90;;;;;;;;;;5025937;28;20343;-64
2024/02/07 06:28:58;;;;;;;6.07;1.58;;;;;;;;;;5025642;28;20325;-65
2024/02/07 06:31:24;;;;;;;4.22;1.10;;;;;;;;;;5025430;28;20325;-63
2024/02/07 06:33:52;;;;;;;6.72;1.15;;;;;;;;;;5025743;28;20313;-63
2024/02/07 06:36:19;;;;;;;7.75;1.50;;;;;;;;;;5025289;28;20313;-63
2024/02/07 06:38:45;;;;;;;8.02;1.25;;;;;;;;;;5025635;28;20029;-63
2024/02/07 06:41:12;;;;;;;6.13;1.13;;;;;;;;;;5025294;28;20017;-61
2024/02/07 06:43:38;;;;;;;4.18;0.85;;;;;;;;;;5025247;28;20025;-63
2024/02/07 06:46:05;;;;;;;5.45;1.10;;;;;;;;;;5025293;28;20245;-62
2024/02/07 06:48:31;;;;;;;3.92;1.10;;;;;;;;;;5025218;28;20306;-64
2024/02/07 06:50:58;;;;;;;4.50;1.60;;;;;;;;;;5024937;28;20022;-68
2024/02/07 06:53:25;;;;;;;8.13;1.20;;;;;;;;;;5025340;28;20317;-61
2024/02/07 06:55:53;;;;;;;4.80;1.10;;;;;;;;;;5025012;28;20064;-63
2024/02/07 06:58:19;;;;;;;7.30;1.15;;;;;;;;;;5024760;28;20072;-63
2024/02/07 07:00:46;;;;;;;6.20;1.15;;;;;;;;;;5024844;28;20018;-62
2024/02/07 07:03:12;;;;;;;8.50;1.10;;;;;;;;;;5024625;28;20030;-63
2024/02/07 07:05:39;;;;;;;4.22;1.08;;;;;;;;;;5024734;28;20021;-63
2024/02/07 07:08:05;;;;;;;5.18;1.20;;;;;;;;;;5024770;28;20038;-64
2024/02/07 07:10:32;;;;;;;5.55;1.10;;;;;;;;;;5024798;28;20235;-64
2024/02/07 07:12:59;;;;;;;6.30;1.00;;;;;;;;;;5024741;28;20053;-66
2024/02/07 07:15:25;;;;;;;7.25;0.90;;;;;;;;;;5024599;28;20025;-67
2024/02/07 07:17:52;;;;;;;3.63;0.90;;;;;;;;;;5024726;28;20033;-62
2024/02/07 07:20:18;;;;;;;7.22;1.00;;;;;;;;;;5024477;28;20085;-63
2024/02/07 07:22:45;;;;;;;5.22;1.15;;;;;;;;;;5024390;28;20032;-63
2024/02/07 07:25:11;;;;;;;5.05;1.02;;;;;;;;;;5024542;28;20018;-64
2024/02/07 07:27:38;;;;;;;5.38;1.15;;;;;;;;;;5024461;28;20182;-62
2024/02/07 07:30:05;;;;;;;3.35;1.02;;;;;;;;;;5024311;28;20237;-64
2024/02/07 07:32:31;;;;;;;4.85;1.00;;;;;;;;;;5024338;28;20025;-63
2024/02/07 07:34:58;;;;;;;4.18;1.05;;;;;;;;;;5024440;28;20022;-64
2024/02/07 07:37:25;;;;;;;6.20;1.00;;;;;;;;;;5024202;28;20040;-63
2024/02/07 07:39:52;;;;;;;4.03;0.90;;;;;;;;;;5024383;28;20017;-62
2024/02/07 07:42:19;;;;;;;5.22;1.10;;;;;;;;;;5023590;28;20044;-65
2024/02/07 07:44:45;;;;;;;5.68;1.15;;;;;;;;;;5024125;28;20206;-64
2024/02/07 07:47:12;;;;;;;3.47;0.95;;;;;;;;;;5024326;28;20264;-64
2024/02/07 07:49:38;;;;;;;7.50;1.27;;;;;;;;;;5024133;28;20030;-64
2024/02/07 07:52:05;;;;;;;7.15;1.15;;;;;;;;;;5023967;28;20233;-61
2024/02/07 07:54:32;;;;;;;6.60;1.05;;;;;;;;;;5024008;28;20029;-64
2024/02/07 07:56:59;;;;;;;3.80;1.02;;;;;;;;;;5024080;28;20233;-63
2024/02/07 07:59:26;;;;;;;6.13;1.20;;;;;;;;;;5024374;28;20029;-63
2024/02/07 08:01:59;;;;;;;2.28;0.90;;;;;;;;;;5024004;28;20071;-63
2024/02/07 08:04:26;;;;;;;6.82;0.95;;;;;;;;;;5023793;28;20101;-65
2024/02/07 08:06:53;;;;;;;4.13;0.90;;;;;;;;;;5024136;28;20310;-66
2024/02/07 08:09:19;;;;;;;6.97;1.02;;;;;;;;;;5024520;28;20256;-63
2024/02/07 08:11:46;;;;;;;4.88;0.90;;;;;;;;;;5023073;28;20022;-63
2024/02/07 08:14:13;;;;;;;6.28;0.90;;;;;;;;;;5024314;28;20034;-65
2024/02/07 08:16:41;;;;;;;4.03;0.95;;;;;;;;;;5023944;28;20309;-63
2024/02/07 08:19:08;;;;;;;7.32;1.00;;;;;;;;;;5024200;28;20202;-64
2024/02/07 08:21:34;;;;;;;5.35;1.00;;;;;;;;;;5023686;28;20045;-64
2024/02/07 08:24:01;;;;;;;5.28;1.00;;;;;;;;;;5024234;28;20040;-64
2024/02/07 08:26:28;;;;;;;8.02;0.82;;;;;;;;;;5023833;28;20237;-63
2024/02/07 08:28:54;;;;;;;5.40;1.02;;;;;;;;;;5023817;28;20210;-64
2024/02/07 08:31:21;;;;;;;4.85;1.40;;;;;;;;;;5023822;28;20373;-63
2024/02/07 08:33:48;;;;;;;6.35;1.25;;;;;;;;;;5023940;28;20058;-64
2024/02/07 08:36:14;;;;;;;5.40;1.10;;;;;;;;;;5023555;28;20064;-62
2024/02/07 08:38:41;;;;;;;3.25;0.77;;;;;;;;;;5023686;28;20048;-64
2024/02/07 08:41:07;;;;;;;6.90;0.95;;;;;;;;;;5023630;28;20317;-65
2024/02/07 08:43:34;;;;;;;5.85;1.10;;;;;;;;;;5023723;28;20093;-63
2024/02/07 08:46:01;;;;;;;4.38;1.05;;;;;;;;;;5023567;28;20025;-64
2024/02/07 08:48:28;;;;;;;3.38;0.80;;;;;;;;;;5023693;28;20199;-63
2024/02/07 08:50:54;;;;;;;3.20;0.85;;;;;;;;;;5023445;28;20089;-65
2024/02/07 08:53:22;;;;;;;4.20;1.00;;;;;;;;;;5023830;28;20079;-65
2024/02/07 08:55:48;;;;;;;5.32;0.82;;;;;;;;;;5025906;28;20029;-65
2024/02/07 08:58:15;;;;;;;4.35;0.73;;;;;;;;;;5027354;28;20076;-65
2024/02/07 09:00:42;;;;;;;5.72;1.00;;;;;;;;;;5027152;28;20188;-67
2024/02/07 09:03:09;;;;;;;5.55;1.02;;;;;;;;;;5026998;28;20056;-66
2024/02/07 09:05:36;;;;;;;5.55;1.02;;;;;;;;;;5027054;28;20068;-64
2024/02/07 09:08:02;;;;;;;4.50;0.90;;;;;;;;;;5027001;28;20271;-67
2024/02/07 09:10:30;;;;;;;7.18;1.13;;;;;;;;;;5027109;28;20026;-65
2024/02/07 09:12:59;;;;;;;6.65;0.90;;;;;;;;;;5026930;28;20021;-65
2024/02/07 09:15:26;;;;;;;7.05;1.23;;;;;;;;;;5027093;28;20101;-65
2024/02/07 09:17:52;;;;;;;2.67;0.85;;;;;;;;;;5026896;28;20025;-65
2024/02/07 09:20:19;;;;;;;2.78;1.10;;;;;;;;;;5026813;28;20068;-65
2024/02/07 09:22:45;;;;;;;6.50;1.08;;;;;;;;;;5026953;28;20045;-64
2024/02/07 09:25:12;;;;;;;4.72;1.10;;;;;;;;;;5026762;28;20133;-64
2024/02/07 09:27:40;;;;;;;3.58;1.08;;;;;;;;;;5026600;28;20021;-63
2024/02/07 09:30:10;;;;;;;5.47;1.17;;;;;;;;;;5026482;28;20077;-62
2024/02/07 09:32:37;;;;;;;3.60;1.10;;;;;;;;;;5026413;28;20026;-63
2024/02/07 09:35:04;;;;;;;8.75;1.50;;;;;;;;;;5026535;28;20029;-64
2024/02/07 09:37:30;;;;;;;5.78;1.23;;;;;;;;;;5026693;28;20018;-64
2024/02/07 09:39:57;;;;;;;3.90;0.80;;;;;;;;;;5026629;28;20207;-62
2024/02/07 09:42:24;;;;;;;4.25;1.10;;;;;;;;;;5026394;28;20033;-62
2024/02/07 09:44:51;;;;;;;3.95;0.90;;;;;;;;;;5026193;28;20071;-63
2024/02/07 09:47:20;;;;;;;4.63;1.00;;;;;;;;;;5026692;28;20359;-68
2024/02/07 09:49:47;;;;;;;5.35;1.10;;;;;;;;;;5026162;28;20049;-67
2024/02/07 09:52:15;;;;;;;6.78;1.20;;;;;;;;;;5026060;28;20026;-66
2024/02/07 09:54:46;;;;;;;4.18;1.00;;;;;;;;;;5026165;28;20077;-66
2024/02/07 09:57:14;;;;;;;7.22;1.35;;;;;;;;;;5025893;28;20021;-66
2024/02/07 09:59:42;;;;;;;5.63;1.02;;;;;;;;;;5025968;28;20054;-64
2024/02/07 10:02:11;;;;;;;5.43;1.50;;;;;;;;;;5026005;28;20018;-64
2024/02/07 10:04:42;;;;;;;5.32;1.05;;;;;;;;;;5025961;28;20061;-65
2024/02/07 10:07:11;;;;;;;6.53;1.38;;;;;;;;;;5025627;28;20034;-64
2024/02/07 10:09:38;;;;;;;6.22;1.10;;;;;;;;;;5026204;28;20042;-65
2024/02/07 10:12:08;;;;;;;3.58;1.00;;;;;;;;;;5025505;28;20026;-66
2024/02/07 10:14:34;;;;;;;5.88;1.35;;;;;;;;;;5026229;28;20022;-64
2024/02/07 10:17:01;;;;;;;7.78;1.42;;;;;;;;;;5025574;28;20017;-64
2024/02/07 10:19:27;;;;;;;6.70;1.30;;;;;;;;;;5025963;28;20030;-64
2024/02/07 10:21:54;;;;;;;6.25;1.25;;;;;;;;;;5025535;28;20032;-65
2024/02/07 10:24:21;;;;;;;4.60;1.42;;;;;;;;;;5025423;28;20048;-62
2024/02/07 10:26:48;;;;;;;6.90;1.27;;;;;;;;;;5025404;28;20022;-62
2024/02/07 10:29:17;;;;;;;5.82;1.30;;;;;;;;;;5025753;28;20095;-64
2024/02/07 10:31:51;;;;;;;5.07;1.10;;;;;;;;;;5025658;28;20068;-65
2024/02/07 10:34:19;;;;;;;3.67;1.30;;;;;;;;;;5025891;28;20030;-62
2024/02/07 10:36:45;;;;;;;6.07;1.30;;;;;;;;;;5025585;28;20314;-61
2024/02/07 10:39:12;;;;;;;5.68;1.40;;;;;;;;;;5025723;28;20095;-62
2024/02/07 10:41:39;;;;;;;5.18;1.30;;;;;;;;;;5025129;28;20072;-62
2024/02/07 10:44:09;;;;;;;7.28;1.90;;;;;;;;;;5025581;28;20068;-66
2024/02/07 10:46:36;;;;;;;6.68;1.67;;;;;;;;;;5025135;28;20033;-67
2024/02/07 10:49:03;;;;;;;5.70;1.60;;;;;;;;;;5025351;28;20030;-65
2024/02/07 10:51:33;;;;;;;7.28;1.60;;;;;;;;;;5025256;28;20022;-66
2024/02/07 10:54:07;;;;;;;9.23;1.80;;;;;;;;;;5025304;28;20093;-67
2024/02/07 10:56:37;;;;;;;4.78;1.20;;;;;;;;;;5024833;28;20025;-66
2024/02/07 10:59:04;;;;;;;8.55;1.88;;;;;;;;;;5025178;28;20025;-65
2024/02/07 11:01:32;;;;;;;6.25;1.80;;;;;;;;;;5024891;28;20030;-66
2024/02/07 11:03:59;;;;;;;7.15;1.40;;;;;;;;;;5024631;28;20058;-65
2024/02/07 11:06:26;;;;;;;7.00;1.40;;;;;;;;;;5024759;28;20321;-62
2024/02/07 11:08:56;;;;;;;3.53;1.10;;;;;;;;;;5024471;28;20034;-66
2024/02/07 11:11:25;;;;;;;4.07;1.25;;;;;;;;;;5024721;28;20048;-65
2024/02/07 11:13:56;;;;;;;7.50;1.25;;;;;;;;;;5024951;28;20328;-65
2024/02/07 11:16:23;;;;;;;5.37;1.40;;;;;;;;;;5024717;28;20021;-62
2024/02/07 11:18:50;;;;;;;4.85;1.38;;;;;;;;;;5024159;28;20030;-63
2024/02/07 11:21:23;;;;;;;5.68;1.70;;;;;;;;;;5024597;28;20202;-64
2024/02/07 11:23:51;;;;;;;6.07;1.55;;;;;;;;;;5024857;28;20303;-63
2024/02/07 11:26:18;;;;;;;3.47;1.02;;;;;;;;;;5023156;28;20068;-63
2024/02/07 11:28:45;;;;;;;5.75;1.48;;;;;;;;;;5024614;28;20034;-65
2024/02/07 11:31:12;;;;;;;11.95;1.90;;;;;;;;;;5024390;28;20021;-64
2024/02/07 11:33:40;;;;;;;8.13;1.88;;;;;;;;;;5024731;28;20175;-64
2024/02/07 11:36:16;;;;;;;8.52;1.90;;;;;;;;;;5024555;28;20018;-70
2024/02/07 11:38:47;;;;;;;13.82;1.73;;;;;;;;;;5024373;28;20080;-65
2024/02/07 11:41:18;;;;;;;6.03;2.05;;;;;;;;;;5024235;28;20085;-66
2024/02/07 11:43:45;;;;;;;9.70;2.10;;;;;;;;;;5024371;28;20300;-66
2024/02/07 11:46:12;;;;;;;9.43;2.20;;;;;;;;;;5024474;28;20025;-66
2024/02/07 11:48:40;;;;;;;11.05;2.42;;;;;;;;;;5024205;28;20317;-66
2024/02/07 11:51:07;;;;;;;8.77;2.53;;;;;;;;;;5023911;28;20025;-59
2024/02/07 11:53:38;;;;;;;11.25;3.30;;;;;;;;;;5024020;28;20029;-63
2024/02/07 11:56:18;;;;;;;11.07;2.55;;;;;;;;;;5023202;28;20018;-62
2024/02/07 11:58:46;;;;;;;9.60;2.47;;;;;;;;;;5024317;28;20030;-65
2024/02/07 12:01:13;;;;;;;11.57;2.67;;;;;;;;;;5024080;28;20022;-60
2024/02/07 12:03:39;;;;;;;10.15;2.30;;;;;;;;;;5023650;28;20053;-62
2024/02/07 12:06:08;;;;;;;8.90;2.40;;;;;;;;;;5023903;28;20022;-60
2024/02/07 12:08:36;;;;;;;7.13;2.80;;;;;;;;;;5024015;28;20329;-58
2024/02/07 12:11:04;;;;;;;13.43;2.97;;;;;;;;;;5023839;28;20025;-61
2024/02/07 12:13:32;;;;;;;10.70;2.63;;;;;;;;;;5024063;28;20297;-58
2024/02/07 12:16:00;;;;;;;7.80;2.65;;;;;;;;;;5023815;28;20036;-63
2024/02/07 12:18:27;;;;;;;7.72;2.00;;;;;;;;;;5023951;28;20056;-62
2024/02/07 12:20:59;;;;;;;8.52;2.35;;;;;;;;;;5024119;28;20018;-62
2024/02/07 12:23:25;;;;;;;9.38;2.38;;;;;;;;;;5024031;28;20029;-64
2024/02/07 12:25:55;;;;;;;6.20;2.00;;;;;;;;;;5023701;28;20080;-61
2024/02/07 12:28:22;;;;;;;8.32;2.25;;;;;;;;;;5024239;28;20054;-61
2024/02/07 12:30:48;;;;;;;5.53;1.85;;;;;;;;;;5027687;28;20135;-63
2024/02/07 12:33:15;;;;;;;4.93;1.83;;;;;;;;;;5027745;28;20025;-63
2024/02/07 12:35:51;;;;;;;5.28;1.98;;;;;;;;;;5027579;28;20022;-61
2024/02/07 12:38:19;;;;;;;9.45;2.30;;;;;;;;;;5027360;28;20064;-60
2024/02/07 12:40:49;;;;;;;7.18;1.88;;;;;;;;;;5027631;28;20125;-62
2024/02/07 12:43:19;;;;;;;5.15;1.65;;;;;;;;;;5027796;28;20041;-63
2024/02/07 12:45:56;;;;;;;7.72;2.05;;;;;;;;;;5027545;28;20324;-62
2024/02/07 12:48:23;;;;;;;3.90;1.50;;;;;;;;;;5027477;28;20034;-66
2024/02/07 12:50:50;;;;;;;4.07;1.80;;;;;;;;;;5027361;28;20017;-62
2024/02/07 12:53:19;;;;;;;5.50;2.13;;;;;;;;;;5027489;28;20030;-62
2024/02/07 12:55:48;;;;;;;3.97;1.33;;;;;;;;;;5027381;28;20021;-64
2024/02/07 12:58:14;;;;;;;5.70;1.77;;;;;;;;;;5027228;28;20034;-64
2024/02/07 13:00:41;;;;;;;7.03;1.80;;;;;;;;;;5027189;28;20085;-62
2024/02/07 13:03:11;;;;;;;5.05;1.52;;;;;;;;;;5026822;28;20357;-63
2024/02/07 13:05:37;;;;;;;6.32;1.52;;;;;;;;;;5027094;28;20092;-62
2024/02/07 13:08:31;;;;;;;3.70;1.20;;;;;;;;;;5027002;28;20084;-63
2024/02/07 13:10:58;;;;;;;4.50;1.35;;;;;;;;;;5027074;28;20052;-62
2024/02/07 13:13:25;;;;;;;6.65;1.58;;;;;;;;;;5027206;28;20026;-64
2024/02/07 13:15:53;;;;;;;6.53;1.40;;;;;;;;;;5026843;28;20021;-61
2024/02/07 13:18:20;;;;;;;5.85;1.65;;;;;;;;;;5026317;28;20099;-60
2024/02/07 13:20:47;;;;;;;3.33;1.33;;;;;;;;;;5026276;28;20022;-60
2024/02/07 13:23:13;;;;;;;4.45;1.08;;;;;;;;;;5026989;28;20025;-61
2024/02/07 13:25:40;;;;;;;5.78;1.10;;;;;;;;;;5026608;28;20021;-62
2024/02/07 13:28:08;;;;;;;3.90;1.25;;;;;;;;;;5026833;28;20072;-59
2024/02/07 13:30:34;;;;;;;4.85;1.00;;;;;;;;;;5026558;28;20026;-61
2024/02/07 13:33:01;;;;;;;4.22;1.00;;;;;;;;;;5026628;28;20026;-60
2024/02/07 13:35:27;;;;;;;5.80;1.00;;;;;;;;;;5026621;28;20213;-61
2024/02/07 13:37:58;;;;;;;3.25;1.17;;;;;;;;;;5026684;28;20026;-60
2024/02/07 13:40:25;;;;;;;2.92;0.98;;;;;;;;;;5024895;28;20085;-62
2024/02/07 13:42:52;;;;;;;2.60;1.05;;;;;;;;;;5025303;28;20064;-61
2024/02/07 13:45:19;;;;;;;5.22;1.00;;;;;;;;;;5026154;28;20022;-63
2024/02/07 13:47:49;;;;;;;3.05;1.00;;;;;;;;;;5026159;28;20033;-60
2024/02/07 13:50:15;;;;;;;3.08;0.80;;;;;;;;;;5026609;28;20336;-62
2024/02/07 13:52:43;;;;;;;3.55;1.08;;;;;;;;;;5026341;28;20025;-60
2024/02/07 13:55:10;;;;;;;3.28;1.10;;;;;;;;;;5025981;28;20028;-62
2024/02/07 13:57:38;;;;;;;5.75;1.27;;;;;;;;;;5026277;28;20076;-61
2024/02/07 14:00:04;;;;;;;4.40;1.00;;;;;;;;;;5025980;28;20018;-61
2024/02/07 14:02:31;;;;;;;3.15;1.00;;;;;;;;;;5025860;28;20356;-62
2024/02/07 14:04:58;;;;;;;4.22;0.90;;;;;;;;;;5025599;28;20344;-61
2024/02/07 14:07:25;;;;;;;1.10;0.68;;;;;;;;;;5026157;28;20253;-63
2024/02/07 14:09:51;;;;;;;2.85;0.85;;;;;;;;;;5025622;28;20032;-61
2024/02/07 14:12:18;;;;;;;2.53;0.90;;;;;;;;;;5025899;28;20022;-61
2024/02/07 14:14:44;;;;;;;2.30;0.70;;;;;;;;;;5025806;28;20018;-61
2024/02/07 14:17:11;;;;;;;2.42;0.80;;;;;;;;;;5025691;28;20036;-65
2024/02/07 14:19:38;;;;;;;3.75;0.80;;;;;;;;;;5026180;28;20095;-62
2024/02/07 14:22:06;;;;;;;2.88;0.93;;;;;;;;;;5025618;28;20022;-62
2024/02/07 14:24:33;;;;;;;2.00;0.70;;;;;;;;;;5025956;28;20056;-64
2024/02/07 14:26:59;;;;;;;2.88;0.90;;;;;;;;;;5024947;28;20056;-57
2024/02/07 14:29:26;;;;;;;3.90;1.05;;;;;;;;;;5025956;28;20029;-59
2024/02/07 14:31:52;;;;;;;4.30;0.82;;;;;;;;;;5025472;28;20009;-61
2024/02/07 14:34:19;;;;;;;4.35;1.15;;;;;;;;;;5025708;28;20026;-58
2024/02/07 14:36:46;;;;;;;4.43;1.00;;;;;;;;;;5025432;28;20241;-61
2024/02/07 14:39:12;;;;;;;6.05;1.23;;;;;;;;;;5025536;28;20209;-61
2024/02/07 14:41:39;;;;;;;6.90;1.48;;;;;;;;;;5025124;28;20022;-59
2024/02/07 14:44:06;;;;;;;3.55;0.95;;;;;;;;;;5025621;28;20028;-59
2024/02/07 14:46:33;;;;;;;5.80;0.93;;;;;;;;;;5016064;28;20026;-56
2024/02/07 14:49:00;;;;;;;3.13;0.80;;;;;;;;;;5005658;28;20026;-62
2024/02/07 14:51:26;;;;;;;3.67;0.90;;;;;;;;;;5016506;28;20262;-58
2024/02/07 14:53:53;;;;;;;4.60;1.15;;;;;;;;;;5020518;28;20026;-61
2024/02/07 14:56:19;;;;;;;4.72;1.13;;;;;;;;;;5016688;28;20206;-62
2024/02/07 14:58:46;;;;;;;3.25;0.90;;;;;;;;;;5021997;28;20259;-64
2024/02/07 15:01:13;;;;;;;3.17;1.05;;;;;;;;;;5023883;28;20088;-60
2024/02/07 15:03:39;;;;;;;4.78;1.27;;;;;;;;;;5024552;28;20046;-61
2024/02/07 15:06:06;;;;;;;5.00;1.20;;;;;;;;;;5024911;28;20197;-63
2024/02/07 15:08:32;;;;;;;4.43;1.38;;;;;;;;;;5024323;28;20033;-60
2024/02/07 15:10:59;;;;;;;8.40;3.03;;;;;;;;;;5024651;28;20029;-56
2024/02/07 15:13:26;;;;;;;6.35;3.10;;;;;;;;;;5024895;28;20022;-60
2024/02/07 15:15:52;;;;;;;7.25;2.47;;;;;;;;;;5024731;28;20080;-60
2024/02/07 15:18:19;;;;;;;5.40;2.72;;;;;;;;;;5024728;28;20034;-62
2024/02/07 15:20:45;;;;;;;7.25;3.10;;;;;;;;;;5019693;28;20030;-61
2024/02/07 15:23:14;;;;;;;8.00;3.83;;;;;;;;;;5017696;28;20022;-70
2024/02/07 15:25:44;;;;;;;5.32;2.42;;;;;;;;;;5020844;28;20029;-62
2024/02/07 15:28:10;;;;;;;5.57;2.38;;;;;;;;;;5023952;28;20026;-65
2024/02/07 15:30:37;;;;;;;7.65;2.20;;;;;;;;;;5023436;28;20116;-61
2024/02/07 15:33:03;;;;;;;5.50;2.25;;;;;;;;;;5021802;28;20025;-66
2024/02/07 15:35:30;;;;;;;7.50;2.47;;;;;;;;;;5023402;28;20113;-59
2024/02/07 15:37:57;;;;;;;8.35;1.80;;;;;;;;;;5024578;28;20025;-62
2024/02/07 15:40:23;;;;;;;5.35;1.67;;;;;;;;;;5022842;28;20029;-58
2024/02/07 15:42:50;;;;;;;5.35;1.55;;;;;;;;;;5024529;28;20282;-60
2024/02/07 15:45:17;;;;;;;8.60;2.08;;;;;;;;;;5023692;28;20222;-58
2024/02/07 15:47:43;;;;;;;13.02;2.05;;;;;;;;;;5020588;28;20033;-59